Time;durP1;ratioP1;P1;durP2;ratioP2;P2;SDS_P1;SDS_P2;PMS_P1;PMS_P2;Temp;Humidity;BMP_temperature;BMP_pressure;BME280_temperature;BME280_humidity;BME280_pressure;Samples;Min_cycle;Max_cycle;Signal;HPM_P1;HPM_P2
2023/10/18 00:02:28;;;;;;;4.10;1.95;;;;;;;7.47;100.00;100754.03;5245555;28;20116;-48
2023/10/18 00:05:05;;;;;;;2.67;1.65;;;;;;;7.44;100.00;100746.13;5243618;28;20392;-48
2023/10/18 00:07:38;;;;;;;2.63;1.63;;;;;;;7.42;100.00;100737.38;5246519;28;20048;-49
2023/10/18 00:10:11;;;;;;;3.17;1.70;;;;;;;7.39;100.00;100737.25;5245476;28;20392;-47
2023/10/18 00:12:47;;;;;;;4.90;2.00;;;;;;;7.35;100.00;100747.44;5244152;28;20056;-47
2023/10/18 00:15:20;;;;;;;2.45;1.77;;;;;;;7.31;100.00;100739.47;5263094;28;20043;-48
2023/10/18 00:17:53;;;;;;;3.47;1.80;;;;;;;7.27;100.00;100743.63;5245403;28;20067;-49
2023/10/18 00:20:26;;;;;;;2.83;1.83;;;;;;;7.24;100.00;100738.31;5245712;28;20503;-49
2023/10/18 00:22:59;;;;;;;2.88;1.90;;;;;;;7.21;100.00;100738.16;5245378;28;20044;-48
2023/10/18 00:25:32;;;;;;;3.95;2.10;;;;;;;7.19;100.00;100733.72;5259506;28;20072;-48
2023/10/18 00:28:08;;;;;;;3.58;1.75;;;;;;;7.19;100.00;100737.19;5241507;28;20121;-48
2023/10/18 00:30:41;;;;;;;2.55;1.50;;;;;;;7.17;100.00;100730.13;5244020;28;20059;-48
2023/10/18 00:33:18;;;;;;;3.00;1.90;;;;;;;7.15;100.00;100724.88;5261966;28;20142;-47
2023/10/18 00:35:52;;;;;;;2.47;1.73;;;;;;;7.13;100.00;100726.53;5262641;28;20048;-49
2023/10/18 00:38:25;;;;;;;2.72;1.70;;;;;;;7.13;100.00;100725.66;5263907;28;20467;-47
2023/10/18 00:40:58;;;;;;;2.78;1.63;;;;;;;7.08;100.00;100720.22;5245840;28;20075;-47
2023/10/18 00:44:49;;;;;;;2.20;1.63;;;;;;;7.01;100.00;100723.34;5291591;27;20382;-48
2023/10/18 00:47:22;;;;;;;3.63;1.83;;;;;;;6.97;100.00;100726.59;5252141;28;20491;-48
2023/10/18 00:49:55;;;;;;;3.42;1.67;;;;;;;6.94;100.00;100726.47;5256552;28;20044;-49
2023/10/18 00:52:28;;;;;;;2.67;1.90;;;;;;;6.92;100.00;100734.19;5256082;28;20066;-49
2023/10/18 00:55:00;;;;;;;3.30;1.80;;;;;;;6.91;100.00;100728.91;5251535;28;20503;-48
2023/10/18 00:57:36;;;;;;;4.32;1.95;;;;;;;6.90;100.00;100725.41;5252319;28;20048;-48
2023/10/18 01:00:12;;;;;;;4.00;1.88;;;;;;;6.88;100.00;100723.59;5253901;28;20049;-49
2023/10/18 01:02:48;;;;;;;4.55;2.10;;;;;;;6.85;100.00;100728.63;5256812;28;20048;-48
2023/10/18 01:05:21;;;;;;;3.65;2.63;;;;;;;6.84;100.00;100729.41;5267321;28;20568;-48
2023/10/18 01:07:55;;;;;;;2.65;1.55;;;;;;;6.80;100.00;100716.31;5252074;28;20101;-48
2023/10/18 01:10:30;;;;;;;3.92;2.10;;;;;;;6.78;100.00;100710.19;5255430;28;20048;-48
2023/10/18 01:13:03;;;;;;;;;;;;;;;6.79;100.00;100705.91;5255316;28;20068;-49
2023/10/18 01:15:38;;;;;;;4.13;2.08;;;;;;;6.75;100.00;100706.53;5256426;28;19922;-48
2023/10/18 01:18:11;;;;;;;3.08;1.90;;;;;;;6.75;100.00;100709.13;5258027;28;20043;-49
2023/10/18 01:20:46;;;;;;;3.42;2.10;;;;;;;6.76;100.00;100706.63;5258749;28;20056;-49
2023/10/18 01:23:19;;;;;;;3.65;2.22;;;;;;;6.76;100.00;100698.84;5257827;28;20135;-48
2023/10/18 01:25:53;;;;;;;4.95;2.00;;;;;;;6.76;100.00;100696.25;5254016;28;20117;-48
2023/10/18 01:28:27;;;;;;;3.30;1.65;;;;;;;6.75;100.00;100691.88;5258153;28;20043;-48
2023/10/18 01:31:05;;;;;;;2.83;1.80;;;;;;;6.74;100.00;100682.34;5257404;28;20118;-48
2023/10/18 01:33:43;;;;;;;2.88;1.85;;;;;;;6.75;100.00;100681.53;5257194;28;20060;-47
2023/10/18 01:36:17;;;;;;;4.40;1.92;;;;;;;6.77;100.00;100690.25;5255405;28;20044;-48
2023/10/18 01:38:51;;;;;;;4.10;1.70;;;;;;;6.77;100.00;100682.47;5255994;28;20045;-49
2023/10/18 01:41:27;;;;;;;3.05;1.75;;;;;;;6.81;100.00;100686.13;5254389;28;20052;-48
2023/10/18 01:44:06;;;;;;;4.25;1.92;;;;;;;6.85;100.00;100682.88;5257997;28;20048;-48
2023/10/18 01:46:45;;;;;;;2.90;1.58;;;;;;;6.87;100.00;100677.75;5256147;28;20515;-50
2023/10/18 01:49:19;;;;;;;2.80;1.80;;;;;;;6.91;100.00;100667.63;5253169;28;20045;-47
2023/10/18 01:51:53;;;;;;;3.63;1.90;;;;;;;6.93;100.00;100665.97;5254556;28;20045;-47
2023/10/18 01:54:26;;;;;;;3.15;1.90;;;;;;;6.95;100.00;100669.53;5252400;28;20074;-48
2023/10/18 01:57:00;;;;;;;3.50;1.95;;;;;;;6.97;100.00;100654.91;5239278;28;20515;-48
2023/10/18 01:59:34;;;;;;;3.22;2.10;;;;;;;6.99;100.00;100655.03;5239718;28;20045;-48
2023/10/18 02:02:10;;;;;;;3.17;1.70;;;;;;;6.98;100.00;100645.47;5237662;28;20040;-47
2023/10/18 02:04:44;;;;;;;2.95;1.77;;;;;;;6.95;100.00;100635.84;5244044;28;20060;-48
2023/10/18 02:07:21;;;;;;;3.05;1.70;;;;;;;6.96;100.00;100631.53;5242243;28;20059;-49
2023/10/18 02:09:57;;;;;;;2.88;1.77;;;;;;;6.97;100.00;100629.00;5238945;28;20074;-48
2023/10/18 02:12:31;;;;;;;4.30;1.63;;;;;;;6.98;100.00;100633.41;5240575;28;20596;-49
2023/10/18 02:15:07;;;;;;;4.75;2.17;;;;;;;7.01;100.00;100635.22;5235492;28;20048;-49
2023/10/18 02:17:43;;;;;;;3.28;1.65;;;;;;;7.03;100.00;100633.59;5201742;28;20569;-48
2023/10/18 02:20:25;;;;;;;2.92;1.85;;;;;;;7.03;100.00;100624.09;5202815;28;20118;-48
2023/10/18 02:23:00;;;;;;;3.25;1.70;;;;;;;7.03;100.00;100618.94;5200109;28;20054;-48
2023/10/18 02:28:27;;;;;;;4.13;1.80;;;;;;;7.04;100.00;100619.81;5190558;28;20045;-47
2023/10/18 02:31:10;;;;;;;2.13;1.67;;;;;;;7.03;100.00;100618.03;5194405;28;20064;-49
2023/10/18 02:33:42;;;;;;;3.65;1.80;;;;;;;7.03;100.00;100615.44;5198871;28;20049;-48
2023/10/18 02:36:21;;;;;;;3.00;1.60;;;;;;;7.03;100.00;100612.84;5194500;28;20081;-47
2023/10/18 02:38:54;;;;;;;2.67;1.58;;;;;;;7.02;100.00;100614.56;5199276;28;20046;-48
2023/10/18 02:41:27;;;;;;;2.95;1.50;;;;;;;7.02;100.00;100616.28;5202316;28;20092;-48
2023/10/18 02:44:03;;;;;;;2.33;1.40;;;;;;;7.03;100.00;100615.44;5202845;28;20049;-48
2023/10/18 02:46:35;;;;;;;2.22;1.52;;;;;;;7.04;100.00;100609.44;5198773;28;20088;-49
2023/10/18 02:49:11;;;;;;;2.70;1.40;;;;;;;7.01;100.00;100610.19;5198545;28;20456;-48
2023/10/18 02:51:44;;;;;;;2.58;1.58;;;;;;;6.98;100.00;100599.72;5202817;28;20046;-48
2023/10/18 02:54:22;;;;;;;2.33;1.65;;;;;;;6.96;100.00;100600.44;5200585;28;20092;-48
2023/10/18 02:56:55;;;;;;;2.92;2.00;;;;;;;6.94;100.00;100602.97;5202367;28;20111;-47
2023/10/18 02:59:32;;;;;;;2.28;1.40;;;;;;;6.95;100.00;100598.66;5200855;28;20128;-48
2023/10/18 03:02:13;;;;;;;3.42;2.05;;;;;;;6.93;100.00;100601.19;5198344;28;20058;-48
2023/10/18 03:04:47;;;;;;;3.60;1.67;;;;;;;6.92;100.00;100594.25;5215336;28;20424;-48
2023/10/18 03:07:22;;;;;;;3.90;1.73;;;;;;;6.89;100.00;100591.50;5200098;28;20057;-48
2023/10/18 03:10:02;;;;;;;3.60;1.67;;;;;;;6.86;100.00;100590.47;5199333;28;20054;-47
2023/10/18 03:12:36;;;;;;;2.80;1.73;;;;;;;6.84;100.00;100584.31;5198847;28;20049;-54
2023/10/18 03:15:12;;;;;;;4.10;1.77;;;;;;;6.79;100.00;100582.44;5195012;28;20053;-47
2023/10/18 03:17:48;;;;;;;3.40;2.00;;;;;;;6.75;100.00;100582.19;5196849;28;20056;-48
2023/10/18 03:20:22;;;;;;;3.80;1.83;;;;;;;6.72;100.00;100575.19;5198102;28;20049;-49
2023/10/18 03:22:55;;;;;;;6.32;2.00;;;;;;;6.70;100.00;100575.91;5192984;28;20074;-48
2023/10/18 03:25:30;;;;;;;3.47;2.00;;;;;;;6.70;100.00;100576.78;5200427;28;20402;-47
2023/10/18 03:28:05;;;;;;;5.55;2.13;;;;;;;6.69;100.00;100567.25;5200960;28;20049;-47
2023/10/18 03:30:44;;;;;;;5.30;2.35;;;;;;;6.68;100.00;100568.06;5195992;28;20041;-47
2023/10/18 03:33:20;;;;;;;5.43;2.00;;;;;;;6.68;100.00;100562.00;5201247;28;20046;-48
2023/10/18 03:36:06;;;;;;;3.08;1.92;;;;;;;6.69;100.00;100556.91;5198549;28;20525;-48
2023/10/18 03:38:41;;;;;;;4.85;2.10;;;;;;;6.71;100.00;100552.66;5200136;28;20052;-49
2023/10/18 03:41:18;;;;;;;3.33;1.90;;;;;;;6.74;100.00;100563.19;5201038;28;20056;-48
2023/10/18 03:43:58;;;;;;;2.25;1.60;;;;;;;6.79;100.00;100540.97;5197742;28;20582;-48
2023/10/18 03:46:46;;;;;;;2.75;1.80;;;;;;;6.84;100.00;100543.75;5197332;28;20144;-48
2023/10/18 03:49:30;;;;;;;3.22;1.92;;;;;;;6.86;100.00;100536.06;5191540;28;20049;-48
2023/10/18 03:52:16;;;;;;;3.30;1.95;;;;;;;6.93;100.00;100535.53;5196783;28;20049;-48
2023/10/18 03:55:04;;;;;;;4.60;1.92;;;;;;;6.99;100.00;100543.59;5211003;28;20561;-47
2023/10/18 03:57:41;;;;;;;4.18;2.22;;;;;;;7.01;100.00;100536.75;5192461;28;20389;-48
2023/10/18 04:00:37;;;;;;;3.22;1.92;;;;;;;7.01;100.00;100526.38;5198168;28;20460;-48
2023/10/18 04:03:12;;;;;;;3.53;1.77;;;;;;;7.03;100.00;100525.63;5222057;28;20063;-47
2023/10/18 04:05:45;;;;;;;2.45;1.55;;;;;;;7.07;100.00;100527.53;5194724;28;20057;-47
2023/10/18 04:08:18;;;;;;;2.63;1.73;;;;;;;7.12;100.00;100530.34;5197590;28;20052;-49
2023/10/18 04:10:58;;;;;;;3.58;1.73;;;;;;;7.16;100.00;100515.81;5193648;28;20127;-48
2023/10/18 04:13:32;;;;;;;3.50;1.75;;;;;;;7.16;100.00;100511.50;5196828;28;20053;-48
2023/10/18 04:16:09;;;;;;;2.97;1.77;;;;;;;7.16;100.00;100498.53;5194521;28;20053;-48
2023/10/18 04:18:43;;;;;;;2.67;1.88;;;;;;;7.16;100.00;100495.94;5196757;28;20115;-47
2023/10/18 04:21:16;;;;;;;3.65;1.92;;;;;;;7.15;100.00;100489.00;5200417;28;20041;-48
2023/10/18 04:23:49;;;;;;;2.88;1.60;;;;;;;7.16;100.00;100488.16;5198033;28;20054;-49
2023/10/18 04:26:26;;;;;;;4.22;1.75;;;;;;;7.16;100.00;100489.88;5192841;28;20505;-48
2023/10/18 04:29:01;;;;;;;2.65;1.70;;;;;;;7.14;100.00;100478.56;5196440;28;20049;-48
2023/10/18 04:31:35;;;;;;;2.97;1.80;;;;;;;7.10;100.00;100469.75;5200518;28;20057;-50
2023/10/18 04:34:11;;;;;;;2.95;1.65;;;;;;;7.10;100.00;100468.88;5192286;28;20042;-49
2023/10/18 04:36:43;;;;;;;4.18;1.63;;;;;;;7.09;100.00;100462.81;5194946;28;20594;-48
2023/10/18 04:39:18;;;;;;;3.53;1.65;;;;;;;7.10;100.00;100453.31;5191642;28;20056;-48
2023/10/18 04:41:51;;;;;;;2.55;1.63;;;;;;;7.09;100.00;100465.41;5193693;28;20100;-48
2023/10/18 04:44:23;;;;;;;2.55;1.60;;;;;;;7.09;100.00;100462.81;5199515;28;20049;-48
2023/10/18 04:46:59;;;;;;;3.03;1.40;;;;;;;7.10;100.00;100455.91;5197514;28;20069;-48
2023/10/18 04:49:38;;;;;;;3.40;1.70;;;;;;;7.08;100.00;100461.91;5194902;28;20057;-48
2023/10/18 04:52:17;;;;;;;3.03;1.52;;;;;;;7.07;100.00;100449.78;5197103;28;20063;-48
2023/10/18 04:55:00;;;;;;;2.03;1.30;;;;;;;7.06;100.00;100457.50;5196512;28;20073;-48
2023/10/18 04:57:38;;;;;;;2.55;1.42;;;;;;;7.02;100.00;100453.88;5197008;28;20363;-49
2023/10/18 05:00:24;;;;;;;2.83;1.35;;;;;;;6.99;100.00;100442.50;5200383;28;20045;-49
2023/10/18 05:02:58;;;;;;;3.10;1.42;;;;;;;6.95;100.00;100448.38;5197450;28;20050;-48
2023/10/18 05:05:37;;;;;;;2.55;1.50;;;;;;;6.93;100.00;100450.91;5193557;28;20042;-48
2023/10/18 05:08:13;;;;;;;4.00;1.63;;;;;;;6.91;100.00;100447.38;5200502;28;20067;-49
2023/10/18 05:10:47;;;;;;;3.60;1.60;;;;;;;6.90;100.00;100439.50;5200207;28;20111;-48
2023/10/18 05:13:32;;;;;;;3.60;1.90;;;;;;;6.87;100.00;100442.84;5197280;28;20377;-49
2023/10/18 05:16:05;;;;;;;2.97;1.38;;;;;;;6.87;100.00;100431.59;5194030;28;20046;-48
2023/10/18 05:18:38;;;;;;;3.05;1.60;;;;;;;6.88;100.00;100430.78;5198043;28;20055;-48
2023/10/18 05:21:20;;;;;;;4.25;2.30;;;;;;;6.89;100.00;100433.44;5197969;28;20042;-48
2023/10/18 05:23:53;;;;;;;1.95;1.63;;;;;;;6.92;100.00;100422.34;5197426;28;20041;-47
2023/10/18 05:26:32;;;;;;;2.97;1.80;;;;;;;6.96;100.00;100424.22;5199463;28;20046;-48
2023/10/18 05:29:09;;;;;;;2.58;1.58;;;;;;;7.00;100.00;100428.72;5190688;28;20137;-49
2023/10/18 05:31:49;;;;;;;3.42;2.40;;;;;;;7.04;100.00;100428.03;5204029;28;20121;-48
2023/10/18 05:34:22;;;;;;;2.78;1.55;;;;;;;7.10;100.00;100423.09;5203796;28;20049;-47
2023/10/18 05:36:58;;;;;;;5.95;2.13;;;;;;;7.13;100.00;100422.38;5203487;28;20056;-49
2023/10/18 05:39:48;;;;;;;2.58;1.70;;;;;;;7.15;100.00;100431.97;5201450;28;20540;-48
2023/10/18 05:42:21;;;;;;;3.65;2.08;;;;;;;7.20;100.00;100422.69;5203682;28;20103;-48
2023/10/18 05:44:54;;;;;;;2.40;1.83;;;;;;;7.21;100.00;100429.63;5197841;28;20197;-48
2023/10/18 05:47:27;;;;;;;4.00;1.98;;;;;;;7.22;100.00;100428.81;5203251;28;20540;-48
2023/10/18 05:50:00;;;;;;;4.72;1.80;;;;;;;7.24;100.00;100432.38;5199560;28;20046;-48
2023/10/18 05:52:44;;;;;;;3.90;2.10;;;;;;;7.25;100.00;100423.78;5201552;28;20054;-48
2023/10/18 05:55:17;;;;;;;5.88;2.00;;;;;;;7.24;100.00;100427.19;5201907;28;20045;-48
2023/10/18 05:57:50;;;;;;;3.13;2.25;;;;;;;7.24;100.00;100426.31;5195799;28;20038;-48
2023/10/18 06:00:22;;;;;;;3.70;2.08;;;;;;;7.24;100.00;100431.50;5198685;28;20076;-47
2023/10/18 06:02:55;;;;;;;3.58;1.85;;;;;;;7.27;100.00;100429.91;5200886;28;20528;-48
2023/10/18 06:05:33;;;;;;;3.08;1.88;;;;;;;7.29;100.00;100425.66;5203012;28;20034;-48
2023/10/18 06:08:07;;;;;;;4.35;1.98;;;;;;;7.32;100.00;100420.59;5200926;28;20041;-48
2023/10/18 06:10:41;;;;;;;2.83;2.08;;;;;;;7.32;100.00;100423.19;5200557;28;20064;-47
2023/10/18 06:13:20;;;;;;;3.25;2.25;;;;;;;7.32;100.00;100415.44;5202871;28;20129;-48
2023/10/18 06:15:58;;;;;;;3.05;1.92;;;;;;;7.32;100.00;100415.44;5197061;28;20052;-47
2023/10/18 06:18:37;;;;;;;3.85;2.13;;;;;;;7.33;100.00;100406.81;5200503;28;20133;-48
2023/10/18 06:21:12;;;;;;;3.00;1.88;;;;;;;7.35;100.00;100399.97;5196869;28;20049;-47
2023/10/18 06:23:54;;;;;;;4.20;2.13;;;;;;;7.36;100.00;100395.69;5185751;28;20694;-49
2023/10/18 06:26:30;;;;;;;4.95;2.50;;;;;;;7.38;100.00;100390.59;5183559;28;20046;-48
2023/10/18 06:29:08;;;;;;;4.80;2.65;;;;;;;7.47;100.00;100388.34;5195064;28;20099;-49
2023/10/18 06:31:46;;;;;;;6.30;2.80;;;;;;;7.53;100.00;100383.41;5204173;28;20056;-49
2023/10/18 06:34:19;;;;;;;6.40;3.15;;;;;;;7.53;100.00;100396.38;5203755;28;20045;-49
2023/10/18 06:36:52;;;;;;;7.00;3.17;;;;;;;7.50;100.00;100397.16;5203936;28;20420;-49
2023/10/18 06:39:28;;;;;;;5.15;2.67;;;;;;;7.65;100.00;100402.06;5199778;28;20077;-49
2023/10/18 06:42:06;;;;;;;5.22;2.33;;;;;;;7.72;100.00;100400.59;5184554;28;20126;-49
2023/10/18 06:44:42;;;;;;;4.85;2.40;;;;;;;7.72;100.00;100396.28;5184727;28;20108;-48
2023/10/18 06:47:15;;;;;;;3.67;1.98;;;;;;;7.73;100.00;100392.88;5190316;28;20055;-48
2023/10/18 06:49:48;;;;;;;4.68;2.53;;;;;;;7.76;100.00;100393.00;5203580;28;20049;-48
2023/10/18 06:52:21;;;;;;;3.13;2.05;;;;;;;7.81;100.00;100396.66;5203614;28;20144;-47
2023/10/18 06:54:55;;;;;;;3.58;2.30;;;;;;;7.86;100.00;100379.56;5203356;28;20141;-48
2023/10/18 06:57:35;;;;;;;4.20;2.20;;;;;;;7.92;100.00;100381.50;5203386;28;20053;-48
2023/10/18 07:00:11;;;;;;;4.35;2.13;;;;;;;7.97;100.00;100381.69;5203618;28;20535;-47
2023/10/18 07:02:44;;;;;;;4.65;2.20;;;;;;;8.04;100.00;100375.91;5203378;28;20056;-48
2023/10/18 07:05:17;;;;;;;4.13;2.28;;;;;;;8.10;100.00;100374.44;5203371;28;20507;-48
2023/10/18 07:07:53;;;;;;;4.50;2.15;;;;;;;8.16;100.00;100373.78;5203246;28;20072;-48
2023/10/18 07:10:53;;;;;;;4.03;2.30;;;;;;;8.26;100.00;100382.78;5203177;28;20057;-48
2023/10/18 07:13:34;;;;;;;4.07;2.20;;;;;;;8.32;100.00;100378.69;5199063;28;20041;-47
2023/10/18 07:16:12;;;;;;;5.25;2.30;;;;;;;8.40;100.00;100379.91;5192371;28;20049;-48
2023/10/18 07:18:45;;;;;;;5.57;2.53;;;;;;;8.48;100.00;100371.53;5182849;28;20196;-48
2023/10/18 07:21:19;;;;;;;6.63;2.50;;;;;;;8.55;100.00;100363.13;5182514;28;20125;-48
2023/10/18 07:23:54;;;;;;;4.88;2.35;;;;;;;8.60;100.00;100361.56;5182393;28;20049;-49
2023/10/18 07:26:29;;;;;;;5.45;3.00;;;;;;;8.64;100.00;100358.25;5198688;28;20045;-47
2023/10/18 07:29:06;;;;;;;6.20;2.70;;;;;;;8.68;100.00;100349.75;5203032;28;20140;-48
2023/10/18 07:31:44;;;;;;;4.35;2.50;;;;;;;8.73;100.00;100340.38;5202811;28;20053;-47
2023/10/18 07:34:28;;;;;;;5.43;2.78;;;;;;;8.81;100.00;100348.47;5202860;28;20084;-48
2023/10/18 07:37:16;;;;;;;4.82;2.58;;;;;;;8.88;100.00;100342.63;5198840;28;20054;-48
2023/10/18 07:39:56;;;;;;;3.60;2.40;;;;;;;9.00;100.00;100331.75;5182670;28;20053;-48
2023/10/18 07:42:34;;;;;;;6.43;3.22;;;;;;;9.11;100.00;100335.59;5182379;28;20213;-48
2023/10/18 07:45:08;;;;;;;4.65;2.53;;;;;;;9.18;100.00;100327.16;5182195;28;20124;-48
2023/10/18 07:47:44;;;;;;;6.30;3.17;;;;;;;9.27;100.00;100327.47;5200264;28;20045;-49
2023/10/18 07:53:07;;;;;;;5.63;2.97;;;;;;;9.59;100.00;100319.81;5194903;28;20052;-48
2023/10/18 07:55:41;;;;;;;6.05;2.75;;;;;;;9.79;100.00;100309.19;5202232;28;20420;-48
2023/10/18 07:58:24;;;;;;;5.93;3.15;;;;;;;10.02;100.00;100311.56;5198606;28;20133;-48
2023/10/18 08:01:09;;;;;;;7.18;3.00;;;;;;;10.30;100.00;100302.84;5182102;28;20054;-48
2023/10/18 08:03:45;;;;;;;5.07;2.90;;;;;;;10.51;100.00;100307.78;5181991;28;20456;-48
2023/10/18 08:06:26;;;;;;;6.95;3.15;;;;;;;10.64;100.00;100306.41;5188455;28;20030;-49
2023/10/18 08:08:58;;;;;;;5.80;3.70;;;;;;;10.71;100.00;100305.72;5202056;28;20056;-48
2023/10/18 08:11:36;;;;;;;6.43;3.15;;;;;;;10.95;100.00;100305.44;5202168;28;20064;-48
2023/10/18 08:14:16;;;;;;;6.65;3.88;;;;;;;11.18;100.00;100293.00;5198031;28;20108;-47
2023/10/18 08:16:55;;;;;;;10.65;5.00;;;;;;;11.28;100.00;100294.97;5181577;28;20050;-48
2023/10/18 08:19:32;;;;;;;7.05;3.63;;;;;;;11.60;100.00;100291.38;5181885;28;20050;-48
2023/10/18 08:22:22;;;;;;;10.15;3.83;;;;;;;12.21;98.99;100292.75;5181764;28;20061;-49
2023/10/18 08:24:56;;;;;;;6.15;3.97;;;;;;;12.95;95.89;100292.38;5181436;28;20710;-49
2023/10/18 08:27:29;;;;;;;6.63;3.17;;;;;;;13.24;93.77;100284.16;5181185;28;20061;-49
2023/10/18 08:30:21;;;;;;;7.63;4.07;;;;;;;12.88;91.47;100285.25;5197859;28;20053;-49
2023/10/18 08:32:54;;;;;;;8.85;4.00;;;;;;;12.63;92.50;100283.06;5181746;28;20046;-48
2023/10/18 08:35:26;;;;;;;7.68;4.00;;;;;;;12.54;92.94;100283.78;5196748;28;20227;-48
2023/10/18 08:38:01;;;;;;;6.13;3.50;;;;;;;12.49;93.55;100280.19;5201668;28;20432;-48
2023/10/18 08:40:37;;;;;;;7.68;3.72;;;;;;;12.46;93.37;100275.81;5201477;28;20049;-48
2023/10/18 08:43:28;;;;;;;10.20;4.03;;;;;;;12.36;93.52;100278.19;5201784;28;20045;-48
2023/10/18 08:46:05;;;;;;;6.15;3.25;;;;;;;12.16;93.51;100276.06;5201500;28;20072;-48
2023/10/18 08:48:40;;;;;;;9.85;4.03;;;;;;;12.12;94.44;100276.84;5197607;28;20050;-48
2023/10/18 08:51:13;;;;;;;7.47;3.88;;;;;;;12.09;94.49;100287.25;5194817;28;20088;-49
2023/10/18 08:53:45;;;;;;;6.70;3.65;;;;;;;12.03;94.72;100279.28;5201305;28;20263;-48
2023/10/18 08:56:25;;;;;;;8.60;3.85;;;;;;;12.08;95.00;100267.22;5202827;28;20393;-48
2023/10/18 08:59:00;;;;;;;7.00;3.42;;;;;;;12.29;95.05;100264.13;5196451;28;20077;-48
2023/10/18 09:01:36;;;;;;;7.50;3.78;;;;;;;12.48;94.54;100254.91;5179415;28;20053;-49
2023/10/18 09:04:08;;;;;;;6.68;3.88;;;;;;;12.67;94.14;100251.78;5184410;28;20042;-49
2023/10/18 09:06:41;;;;;;;9.05;4.45;;;;;;;12.76;92.36;100243.22;5204627;28;20080;-49
2023/10/18 09:09:17;;;;;;;8.05;4.25;;;;;;;12.80;92.30;100252.00;5204398;28;20492;-48
2023/10/18 09:11:53;;;;;;;6.40;3.78;;;;;;;12.92;92.36;100244.38;5202790;28;20060;-48
2023/10/18 09:14:27;;;;;;;8.55;3.63;;;;;;;13.07;92.30;100241.09;5205742;28;20060;-48
2023/10/18 09:17:02;;;;;;;9.27;4.55;;;;;;;13.16;90.86;100241.22;5205792;28;20045;-48
2023/10/18 09:19:38;;;;;;;8.23;3.92;;;;;;;13.25;91.47;100238.81;5202295;28;20538;-48
2023/10/18 09:22:11;;;;;;;7.78;4.68;;;;;;;13.29;90.20;100240.59;5205849;28;20083;-48
2023/10/18 09:24:44;;;;;;;8.73;3.97;;;;;;;13.32;89.81;100235.44;5205914;28;20500;-48
2023/10/18 09:27:17;;;;;;;6.95;3.55;;;;;;;13.36;90.26;100238.94;5201454;28;20050;-48
2023/10/18 09:29:52;;;;;;;7.18;3.58;;;;;;;13.33;89.32;100231.06;5185191;28;20057;-48
2023/10/18 09:32:33;;;;;;;7.43;3.33;;;;;;;13.42;89.93;100237.31;5191867;28;20045;-48
2023/10/18 09:35:08;;;;;;;6.32;3.53;;;;;;;13.54;90.09;100240.09;5202907;28;20515;-48
2023/10/18 09:37:40;;;;;;;6.80;3.40;;;;;;;13.61;89.23;100233.19;5201589;28;20054;-48
2023/10/18 09:40:13;;;;;;;5.53;2.72;;;;;;;13.63;88.91;100241.97;5188004;28;20445;-49
2023/10/18 09:42:46;;;;;;;8.45;3.90;;;;;;;13.54;88.65;100237.47;5205199;28;20049;-46
2023/10/18 09:45:20;;;;;;;7.45;3.83;;;;;;;13.49;88.70;100222.56;5203804;28;20424;-47
2023/10/18 09:47:56;;;;;;;8.25;3.90;;;;;;;13.64;88.08;100216.69;5195970;28;20054;-49
2023/10/18 09:50:31;;;;;;;8.73;3.63;;;;;;;13.80;87.37;100214.25;5184767;28;20054;-48
2023/10/18 09:53:05;;;;;;;7.90;3.67;;;;;;;14.04;87.56;100205.81;5184650;28;20116;-48
2023/10/18 09:55:41;;;;;;;5.95;3.38;;;;;;;14.35;87.22;100196.53;5185159;28;20050;-48
2023/10/18 09:58:18;;;;;;;7.15;3.20;;;;;;;14.54;84.92;100186.25;5195969;28;20140;-48
2023/10/18 10:00:56;;;;;;;7.00;3.30;;;;;;;14.59;85.16;100181.91;5200447;28;20049;-47
2023/10/18 10:03:35;;;;;;;7.53;3.40;;;;;;;14.62;85.09;100177.59;5198796;28;20111;-47
2023/10/18 10:06:08;;;;;;;5.80;2.90;;;;;;;14.80;85.90;100163.75;5204286;28;20145;-47
2023/10/18 10:08:41;;;;;;;5.80;3.03;;;;;;;14.75;82.25;100172.44;5200390;28;20059;-47
2023/10/18 10:11:14;;;;;;;6.18;2.70;;;;;;;14.76;83.33;100172.47;5204175;28;20045;-49
2023/10/18 10:13:49;;;;;;;5.80;3.08;;;;;;;14.73;82.82;100156.69;5204132;28;20049;-48
2023/10/18 10:16:24;;;;;;;4.90;2.53;;;;;;;14.90;84.47;100147.19;5152931;28;20136;-48
2023/10/18 10:19:00;;;;;;;;;;;14.90;95.60;;;15.29;86.66;100137.81;5170123;28;20049;-49
2023/10/18 10:21:36;;;;;;;6.15;3.33;;;15.00;97.50;;;15.47;79.90;100156.28;4905172;28;19933;-48
2023/10/18 10:27:21;;;;;;;5.05;2.20;;;15.30;93.70;;;15.52;79.92;100137.03;5180056;28;20536;-47
2023/10/18 10:29:56;;;;;;;5.57;2.67;;;15.30;93.70;;;15.59;79.36;100133.59;5180357;28;20137;-47
2023/10/18 10:32:29;;;;;;;6.80;2.40;;;15.40;93.20;;;15.62;79.21;100129.22;5179070;28;20084;-47
2023/10/18 10:35:15;;;;;;;6.07;2.70;;;15.40;93.10;;;15.42;77.36;100126.50;5175397;28;20508;-48
2023/10/18 10:37:49;;;;;;;5.28;2.55;;;15.30;92.00;;;15.33;78.56;100109.84;5178277;28;20386;-49
2023/10/18 10:40:39;;;;;;;2.92;1.88;;;15.20;92.50;;;15.36;79.40;100105.47;5200167;28;20060;-47
2023/10/18 10:43:12;;;;;;;6.30;2.67;;;15.20;92.90;;;15.47;77.97;100092.38;5169699;28;20094;-47
2023/10/18 10:45:54;;;;;;;7.47;3.00;;;15.30;92.20;;;15.48;77.82;100089.75;5193500;28;20652;-48
2023/10/18 10:48:38;;;;;;;3.67;1.90;;;15.30;92.10;;;15.58;77.88;100089.78;5199310;28;20049;-48
2023/10/18 10:51:13;;;;;;;4.18;2.20;;;15.40;92.20;;;15.54;77.20;100086.28;5199047;28;20033;-49
2023/10/18 10:53:50;;;;;;;4.65;2.00;;;15.30;91.70;;;15.58;77.51;100076.63;5196913;28;20053;-48
2023/10/18 10:56:43;;;;;;;4.63;1.80;;;15.40;91.80;;;15.54;77.66;100072.25;5196513;28;20532;-47
2023/10/18 10:59:22;;;;;;;4.70;2.35;;;15.40;91.90;;;15.57;77.52;100064.38;5200802;28;20132;-47
2023/10/18 11:02:10;;;;;;;5.07;2.15;;;15.30;91.60;;;15.62;77.35;100054.81;5205637;28;20056;-48
2023/10/18 11:04:59;;;;;;;3.67;1.90;;;15.40;91.60;;;15.65;77.40;100039.94;5195217;28;20500;-48
2023/10/18 11:07:36;;;;;;;4.68;2.20;;;15.40;91.60;;;15.71;77.31;100050.47;5194620;28;20096;-47
2023/10/18 11:10:14;;;;;;;4.70;2.03;;;15.50;91.50;;;15.76;76.82;100039.94;5201145;28;20709;-47
2023/10/18 11:12:47;;;;;;;3.53;2.00;;;15.60;91.30;;;15.81;76.41;100039.97;5204677;28;20069;-48
2023/10/18 11:15:27;;;;;;;3.80;1.70;;;15.60;91.10;;;15.88;76.62;100026.81;5194612;28;20140;-48
2023/10/18 11:18:09;;;;;;;2.90;1.50;;;15.70;91.10;;;16.00;77.18;100023.34;5205353;28;20060;-48
2023/10/18 11:20:58;;;;;;;3.90;2.08;;;15.80;91.40;;;16.07;75.64;100008.44;5201871;28;20053;-47
2023/10/18 11:23:33;;;;;;;3.40;1.90;;;15.80;90.50;;;16.14;76.20;100018.06;5195613;28;20140;-47
2023/10/18 11:26:09;;;;;;;3.25;1.88;;;15.90;90.80;;;16.19;75.87;100022.47;5203111;28;20041;-47
2023/10/18 11:28:42;;;;;;;3.03;1.70;;;16.00;90.60;;;16.36;76.37;100017.16;5196845;28;20060;-47
2023/10/18 11:31:15;;;;;;;3.53;1.63;;;16.10;90.90;;;16.51;75.77;100019.81;5201642;28;20053;-47
2023/10/18 11:33:54;;;;;;;4.03;1.92;;;16.20;90.60;;;16.64;74.86;100023.28;5192641;28;20057;-48
2023/10/18 11:36:30;;;;;;;2.30;1.83;;;16.30;90.20;;;16.68;75.00;100006.59;5195752;28;20044;-48
2023/10/18 11:39:18;;;;;;;4.20;2.00;;;16.40;90.20;;;16.57;73.83;99994.38;5193603;28;20137;-48
2023/10/18 11:41:53;;;;;;;2.72;1.75;;;16.30;88.90;;;16.58;74.93;99989.09;5206295;28;20049;-48
2023/10/18 11:44:27;;;;;;;;;;;16.30;89.70;;;16.62;75.30;99982.94;5191909;28;20080;-48
2023/10/18 11:47:11;;;;;;;3.50;1.45;;;16.40;90.10;;;16.67;75.29;99982.94;5197811;28;19925;-49
2023/10/18 11:49:44;;;;;;;3.38;2.15;;;16.40;90.00;;;16.73;75.21;99975.91;5191340;28;20219;-47
2023/10/18 11:52:21;;;;;;;2.60;1.60;;;16.40;90.00;;;16.68;74.37;99975.03;5196062;28;20046;-48
2023/10/18 11:55:09;;;;;;;4.03;1.70;;;16.40;88.90;;;16.59;74.26;99961.91;5195293;28;20382;-48
2023/10/18 11:57:46;;;;;;;4.72;1.92;;;16.40;88.60;;;16.57;74.21;99952.28;5193957;28;20048;-48
2023/10/18 12:00:26;;;;;;;3.30;1.67;;;16.40;88.50;;;16.61;75.25;99935.59;5195170;28;20052;-48
2023/10/18 12:02:58;;;;;;;1.98;1.45;;;16.40;89.60;;;16.69;76.05;99939.06;5190799;28;20049;-48
2023/10/18 12:05:33;;;;;;;3.65;1.65;;;16.40;90.10;;;16.84;75.64;99923.25;5195304;28;20056;-48
2023/10/18 12:08:12;;;;;;;3.50;1.75;;;16.50;90.10;;;16.94;75.25;99914.41;5198526;28;20119;-47